Time;durP1;ratioP1;P1;durP2;ratioP2;P2;SDS_P1;SDS_P2;PMS_P1;PMS_P2;Temp;Humidity;BMP_temperature;BMP_pressure;BME280_temperature;BME280_humidity;BME280_pressure;Samples;Min_cycle;Max_cycle;Signal;HPM_P1;HPM_P2
2023/05/17 00:01:50;;;;;;;1.80;1.27;;;23.40;66.60;;;;;;5095088;28;20434;-67
2023/05/17 00:04:18;;;;;;;1.93;1.40;;;23.40;66.60;;;;;;5086688;28;20453;-66
2023/05/17 00:06:46;;;;;;;1.57;1.47;;;23.40;66.60;;;;;;5094724;28;20433;-67
2023/05/17 00:09:14;;;;;;;3.30;1.40;;;23.40;66.60;;;;;;5074639;28;20525;-67
2023/05/17 00:11:43;;;;;;;2.20;1.37;;;23.40;66.60;;;;;;5075068;28;20463;-67
2023/05/17 00:14:11;;;;;;;1.63;1.37;;;23.40;66.50;;;;;;5072302;28;20797;-67
2023/05/17 00:16:39;;;;;;;2.13;1.73;;;23.40;66.50;;;;;;5074698;28;20436;-66
2023/05/17 00:19:09;;;;;;;1.53;1.43;;;23.40;66.50;;;;;;5074448;28;20435;-67
2023/05/17 00:21:37;;;;;;;2.10;1.40;;;23.40;66.50;;;;;;5053549;28;20436;-67
2023/05/17 00:24:07;;;;;;;1.80;1.30;;;23.40;66.50;;;;;;5066555;28;20451;-67
2023/05/17 00:26:36;;;;;;;2.33;1.40;;;23.40;66.50;;;;;;5064408;28;20488;-67
2023/05/17 00:29:04;;;;;;;1.70;1.60;;;23.40;66.50;;;;;;5053919;28;20474;-67
2023/05/17 00:31:33;;;;;;;2.40;1.60;;;23.30;66.50;;;;;;5072488;28;20458;-67
2023/05/17 00:34:01;;;;;;;1.63;1.53;;;23.30;66.40;;;;;;5061017;28;20459;-67
2023/05/17 00:36:31;;;;;;;3.33;1.53;;;23.30;66.40;;;;;;5036647;28;20924;-67
2023/05/17 00:38:59;;;;;;;1.37;1.27;;;23.30;66.40;;;;;;5036294;28;20505;-67
2023/05/17 00:41:27;;;;;;;0.97;0.97;;;23.30;66.40;;;;;;5035934;28;21016;-66
2023/05/17 00:43:55;;;;;;;1.57;1.27;;;23.30;66.40;;;;;;5053125;28;20506;-67
2023/05/17 00:46:23;;;;;;;1.27;1.10;;;23.30;66.40;;;;;;5053243;28;20440;-67
2023/05/17 00:48:51;;;;;;;1.13;1.03;;;23.30;66.40;;;;;;5053989;28;20467;-67
2023/05/17 00:51:20;;;;;;;1.23;1.13;;;23.30;66.40;;;;;;5054150;28;20431;-67
2023/05/17 00:53:50;;;;;;;1.63;1.40;;;23.30;66.30;;;;;;5060557;28;20451;-67
2023/05/17 00:56:18;;;;;;;1.57;1.47;;;23.30;66.30;;;;;;5055062;28;20448;-66
2023/05/17 00:58:47;;;;;;;1.20;1.20;;;23.30;66.30;;;;;;5039970;28;20467;-66
2023/05/17 01:01:15;;;;;;;2.07;1.10;;;23.30;66.30;;;;;;5045693;28;20811;-67
2023/05/17 01:03:45;;;;;;;1.60;1.40;;;23.30;66.30;;;;;;5041054;28;20487;-67
2023/05/17 01:06:14;;;;;;;1.40;1.30;;;23.30;66.30;;;;;;5033775;28;20482;-67
2023/05/17 01:08:43;;;;;;;1.30;1.20;;;23.30;66.30;;;;;;5063045;28;20444;-67
2023/05/17 01:11:35;;;;;;;1.40;1.30;;;23.30;66.30;;;;;;5044466;28;20466;-67
2023/05/17 01:14:17;;;;;;;1.17;1.07;;;23.30;66.30;;;;;;5043561;28;20460;-67
2023/05/17 01:16:51;;;;;;;1.37;1.27;;;23.30;66.20;;;;;;5053808;28;20444;-67
2023/05/17 01:19:40;;;;;;;1.30;1.20;;;23.30;66.20;;;;;;5053311;28;20969;-67
2023/05/17 01:22:17;;;;;;;1.43;1.27;;;23.20;66.20;;;;;;5053446;28;20496;-67
2023/05/17 01:24:52;;;;;;;1.47;1.37;;;23.20;66.20;;;;;;5052606;28;21016;-66
2023/05/17 01:27:24;;;;;;;1.50;1.40;;;23.20;66.20;;;;;;5059295;28;20478;-67
2023/05/17 01:29:54;;;;;;;1.53;1.43;;;23.20;66.20;;;;;;5052483;28;20969;-67
2023/05/17 01:32:24;;;;;;;1.30;1.20;;;23.20;66.20;;;;;;5086421;28;20451;-67
2023/05/17 01:34:52;;;;;;;3.30;1.20;;;23.20;66.20;;;;;;5074456;28;20458;-67
2023/05/17 01:37:21;;;;;;;1.40;1.30;;;23.20;66.20;;;;;;5073294;28;20444;-67
2023/05/17 01:39:49;;;;;;;1.30;1.20;;;23.20;66.10;;;;;;5077966;28;20852;-67
2023/05/17 01:42:29;;;;;;;1.20;1.10;;;23.20;66.10;;;;;;5073036;28;20887;-67
2023/05/17 01:45:03;;;;;;;2.30;1.23;;;23.20;66.10;;;;;;5074479;28;20455;-67
2023/05/17 01:47:38;;;;;;;1.20;1.10;;;23.20;66.10;;;;;;5083882;28;20438;-67
2023/05/17 01:50:10;;;;;;;1.47;1.20;;;23.20;66.10;;;;;;5075595;28;21052;-66
2023/05/17 01:52:45;;;;;;;1.10;1.00;;;23.20;66.10;;;;;;5059152;28;20454;-66
2023/05/17 01:55:23;;;;;;;1.53;1.17;;;23.20;66.10;;;;;;5087255;28;20458;-67
2023/05/17 01:57:55;;;;;;;1.20;1.20;;;23.20;66.10;;;;;;5085707;28;20477;-67
2023/05/17 02:00:26;;;;;;;1.07;1.03;;;23.20;66.10;;;;;;5057049;28;20454;-67
2023/05/17 02:02:55;;;;;;;1.17;1.07;;;23.20;66.00;;;;;;5047150;28;20840;-67
2023/05/17 02:05:25;;;;;;;1.30;1.20;;;23.20;66.00;;;;;;5072648;28;20435;-66
2023/05/17 02:07:54;;;;;;;2.10;1.07;;;23.20;66.00;;;;;;5073045;28;20484;-67
2023/05/17 02:10:22;;;;;;;1.33;1.10;;;23.20;66.00;;;;;;5051237;28;20479;-67
2023/05/17 02:12:52;;;;;;;0.90;0.90;;;23.10;66.00;;;;;;5078421;28;20449;-67
2023/05/17 02:15:20;;;;;;;1.40;1.30;;;23.10;65.90;;;;;;5056288;28;20900;-67
2023/05/17 02:17:51;;;;;;;1.07;1.07;;;23.10;66.00;;;;;;5065897;28;20466;-67
2023/05/17 02:20:20;;;;;;;1.60;1.50;;;23.10;65.90;;;;;;5092844;28;20448;-67
2023/05/17 02:22:48;;;;;;;1.03;1.03;;;23.10;65.90;;;;;;5092958;28;20499;-67
2023/05/17 02:25:16;;;;;;;1.33;1.23;;;23.10;65.90;;;;;;5057559;28;20908;-67
2023/05/17 02:27:44;;;;;;;4.17;1.27;;;23.10;65.90;;;;;;5071371;28;20481;-67
2023/05/17 02:30:15;;;;;;;0.90;0.90;;;23.10;65.90;;;;;;5075877;28;20481;-67
2023/05/17 02:32:45;;;;;;;1.00;1.00;;;23.10;65.90;;;;;;5076150;28;20926;-66
2023/05/17 02:35:14;;;;;;;1.13;1.03;;;23.10;65.90;;;;;;5076152;28;20456;-67
2023/05/17 02:37:43;;;;;;;0.67;0.67;;;23.10;65.80;;;;;;5074593;28;20461;-67
2023/05/17 02:40:13;;;;;;;0.90;0.90;;;23.10;65.80;;;;;;5054752;28;20984;-67
2023/05/17 02:42:41;;;;;;;1.00;0.83;;;23.10;65.80;;;;;;5071956;28;20439;-66
2023/05/17 02:45:10;;;;;;;1.30;1.20;;;23.10;65.80;;;;;;5071506;28;20439;-66
2023/05/17 02:47:40;;;;;;;1.00;1.00;;;23.10;65.80;;;;;;5071341;28;20454;-66
2023/05/17 02:50:09;;;;;;;1.47;1.37;;;23.10;65.80;;;;;;5053871;28;20827;-67
2023/05/17 02:52:38;;;;;;;0.90;0.90;;;23.10;65.80;;;;;;5054442;28;20446;-66
2023/05/17 02:55:07;;;;;;;0.90;0.90;;;23.10;65.80;;;;;;5065657;28;20485;-66
2023/05/17 02:57:35;;;;;;;1.17;1.00;;;23.10;65.70;;;;;;5076457;28;20521;-67
2023/05/17 03:00:05;;;;;;;1.30;1.20;;;23.10;65.80;;;;;;5053352;28;20459;-67
2023/05/17 03:02:33;;;;;;;1.43;1.20;;;23.10;65.80;;;;;;5054078;28;20463;-66
2023/05/17 03:05:04;;;;;;;0.90;0.90;;;23.10;65.80;;;;;;5052409;28;20516;-66
2023/05/17 03:07:32;;;;;;;1.17;1.07;;;23.10;65.80;;;;;;5058655;28;20461;-66
2023/05/17 03:10:01;;;;;;;0.90;0.90;;;23.10;65.80;;;;;;5066555;28;20476;-67
2023/05/17 03:12:35;;;;;;;1.00;1.00;;;23.10;65.80;;;;;;5071981;28;20459;-66
2023/05/17 03:15:04;;;;;;;1.17;1.07;;;23.10;65.70;;;;;;5070568;28;20503;-66
2023/05/17 03:17:32;;;;;;;1.33;1.10;;;23.00;65.70;;;;;;5068302;28;20470;-67
2023/05/17 03:20:00;;;;;;;1.30;1.20;;;23.00;65.70;;;;;;5033698;28;20464;-66
2023/05/17 03:22:31;;;;;;;0.90;0.90;;;23.00;65.70;;;;;;5034018;28;20448;-67
2023/05/17 03:25:00;;;;;;;1.30;1.10;;;23.00;65.70;;;;;;5055221;28;20530;-67
2023/05/17 03:27:29;;;;;;;1.17;1.07;;;23.00;65.70;;;;;;5057548;28;21330;-66
2023/05/17 03:29:58;;;;;;;1.70;1.03;;;23.00;65.70;;;;;;5073150;28;20461;-66
2023/05/17 03:32:27;;;;;;;0.90;0.90;;;23.00;65.70;;;;;;5074484;28;20461;-66
2023/05/17 03:34:55;;;;;;;1.30;1.20;;;23.00;65.70;;;;;;5075696;28;20458;-66
2023/05/17 03:37:25;;;;;;;1.23;1.00;;;23.00;65.60;;;;;;5056594;28;20519;-67
2023/05/17 03:39:54;;;;;;;0.80;0.80;;;23.00;65.60;;;;;;5077485;28;20427;-67
2023/05/17 03:42:23;;;;;;;1.10;1.10;;;23.00;65.60;;;;;;5077893;28;20461;-67
2023/05/17 03:44:52;;;;;;;1.30;1.00;;;23.00;65.60;;;;;;5064565;28;20533;-67
2023/05/17 03:47:22;;;;;;;1.10;1.00;;;23.00;65.60;;;;;;5065664;28;20946;-67
2023/05/17 03:49:51;;;;;;;0.70;0.70;;;23.00;65.60;;;;;;5057628;28;20447;-67
2023/05/17 03:52:19;;;;;;;1.03;1.00;;;23.00;65.60;;;;;;5057316;28;20478;-67
2023/05/17 03:54:48;;;;;;;1.00;0.83;;;23.00;65.70;;;;;;5055550;28;20509;-67
2023/05/17 03:57:18;;;;;;;1.00;1.00;;;23.00;65.70;;;;;;5058311;28;20954;-67
2023/05/17 03:59:46;;;;;;;1.00;0.90;;;23.00;65.70;;;;;;5056546;28;20565;-67
2023/05/17 04:02:16;;;;;;;2.90;0.80;;;23.00;65.60;;;;;;5070867;28;20473;-68
2023/05/17 04:04:49;;;;;;;0.80;0.80;;;23.10;65.60;;;;;;5083927;28;20466;-67
2023/05/17 04:07:18;;;;;;;1.37;1.27;;;23.10;65.50;;;;;;5053701;28;20467;-67
2023/05/17 04:09:47;;;;;;;1.03;0.80;;;23.10;65.50;;;;;;5056609;28;20458;-67
2023/05/17 04:12:15;;;;;;;1.07;0.97;;;23.10;65.40;;;;;;5074659;28;20470;-68
2023/05/17 04:14:45;;;;;;;1.40;1.30;;;23.10;65.40;;;;;;5055614;28;20537;-67
2023/05/17 04:17:13;;;;;;;0.80;0.80;;;23.20;65.30;;;;;;5076865;28;20496;-67
2023/05/17 04:19:44;;;;;;;1.40;1.20;;;23.20;65.30;;;;;;5054902;28;20863;-68
2023/05/17 04:22:13;;;;;;;0.90;0.70;;;23.20;65.20;;;;;;5073746;28;20546;-67
2023/05/17 04:24:42;;;;;;;1.00;1.00;;;23.30;65.20;;;;;;5057105;28;20485;-67
2023/05/17 04:27:10;;;;;;;0.80;0.80;;;23.30;65.20;;;;;;5056929;28;21017;-67
2023/05/17 04:29:39;;;;;;;1.13;0.93;;;23.30;65.20;;;;;;5067577;28;20465;-67
2023/05/17 04:32:09;;;;;;;1.30;1.20;;;23.30;65.20;;;;;;5060923;28;20464;-67
2023/05/17 04:34:38;;;;;;;3.40;1.43;;;23.30;65.20;;;;;;5055855;28;20467;-67
2023/05/17 04:37:08;;;;;;;1.37;1.10;;;23.30;65.20;;;;;;5049076;28;21368;-68
2023/05/17 04:39:37;;;;;;;1.67;1.20;;;23.30;65.00;;;;;;5051050;28;20968;-67
2023/05/17 04:42:06;;;;;;;1.07;0.97;;;23.30;65.00;;;;;;5053058;28;20460;-67
2023/05/17 04:44:38;;;;;;;1.00;0.90;;;23.30;65.00;;;;;;5050207;28;20551;-66
2023/05/17 04:47:06;;;;;;;0.90;0.90;;;23.20;65.00;;;;;;5054126;28;20515;-67
2023/05/17 04:49:37;;;;;;;0.70;0.70;;;23.20;65.00;;;;;;5057166;28;20485;-67
2023/05/17 04:52:05;;;;;;;0.83;0.83;;;23.20;65.00;;;;;;5054371;28;20478;-68
2023/05/17 04:54:35;;;;;;;1.07;0.90;;;23.20;65.00;;;;;;5050164;28;20500;-68
2023/05/17 04:57:04;;;;;;;1.63;1.00;;;23.20;64.90;;;;;;5053317;28;20975;-69
2023/05/17 04:59:49;;;;;;;1.20;1.00;;;23.20;65.00;;;;;;5051818;28;21231;-68
2023/05/17 05:02:17;;;;;;;2.67;1.00;;;23.20;65.30;;;;;;5049493;28;21035;-68
2023/05/17 05:04:47;;;;;;;2.53;0.97;;;23.20;65.40;;;;;;5076097;28;20466;-68
2023/05/17 05:07:15;;;;;;;0.87;0.87;;;23.20;65.50;;;;;;5052752;28;20505;-68
2023/05/17 05:09:45;;;;;;;1.10;0.93;;;23.20;65.60;;;;;;5055288;28;20492;-69
2023/05/17 05:12:15;;;;;;;2.27;0.93;;;23.20;65.60;;;;;;5054323;28;20474;-69
2023/05/17 05:14:43;;;;;;;1.87;0.83;;;23.20;65.60;;;;;;5066103;28;20840;-69
2023/05/17 05:17:11;;;;;;;2.53;1.30;;;23.20;65.60;;;;;;5070461;28;20531;-68
2023/05/17 05:19:41;;;;;;;1.10;1.00;;;23.10;65.60;;;;;;5050262;28;20550;-69
2023/05/17 05:22:11;;;;;;;0.80;0.80;;;23.10;65.70;;;;;;5038078;28;20466;-68
2023/05/17 05:24:40;;;;;;;2.10;1.30;;;23.10;65.80;;;;;;5057424;28;20533;-69
2023/05/17 05:27:08;;;;;;;4.13;1.20;;;23.10;65.80;;;;;;5061807;28;20488;-72
2023/05/17 05:29:38;;;;;;;2.00;1.17;;;23.10;65.80;;;;;;5051218;28;20474;-67
2023/05/17 05:32:07;;;;;;;1.03;0.90;;;23.10;65.90;;;;;;5066914;28;20479;-68
2023/05/17 05:34:41;;;;;;;1.10;1.00;;;23.10;65.90;;;;;;5069713;28;20475;-68
2023/05/17 05:37:11;;;;;;;1.57;1.00;;;23.10;65.90;;;;;;5068254;28;20454;-67
2023/05/17 05:39:39;;;;;;;1.40;1.00;;;23.10;65.90;;;;;;5072735;28;20495;-67
2023/05/17 05:42:08;;;;;;;1.43;0.90;;;23.10;65.60;;;;;;5048107;28;20470;-69
2023/05/17 05:44:36;;;;;;;1.17;1.07;;;23.10;65.30;;;;;;5062713;28;20438;-69
2023/05/17 05:47:05;;;;;;;1.83;1.50;;;23.10;65.50;;;;;;5066777;28;20491;-68
2023/05/17 05:49:33;;;;;;;1.13;1.00;;;23.00;64.80;;;;;;5066934;28;20459;-68
2023/05/17 05:52:01;;;;;;;3.30;1.30;;;23.00;64.70;;;;;;5069906;28;20478;-67
2023/05/17 05:54:32;;;;;;;2.00;1.10;;;23.00;64.50;;;;;;5053492;28;20497;-68
2023/05/17 05:57:00;;;;;;;1.30;1.20;;;23.00;64.60;;;;;;5047830;28;20459;-67
2023/05/17 05:59:29;;;;;;;2.10;1.07;;;23.00;64.00;;;;;;5050864;28;20505;-68
2023/05/17 06:01:58;;;;;;;2.00;1.70;;;23.00;63.80;;;;;;5065095;28;20450;-67
2023/05/17 06:04:27;;;;;;;1.27;1.10;;;23.00;63.60;;;;;;5071825;28;21017;-67
2023/05/17 06:07:12;;;;;;;3.07;1.20;;;23.10;63.80;;;;;;5068981;28;20447;-67
2023/05/17 06:09:42;;;;;;;1.30;1.20;;;23.10;63.00;;;;;;5075866;28;20503;-67
2023/05/17 06:12:10;;;;;;;1.90;0.93;;;23.10;62.70;;;;;;5058741;28;20478;-67
2023/05/17 06:14:38;;;;;;;2.00;1.30;;;23.10;62.30;;;;;;5068775;28;20492;-66
2023/05/17 06:17:06;;;;;;;2.23;1.20;;;23.10;62.20;;;;;;5069743;28;20434;-67
2023/05/17 06:19:34;;;;;;;2.53;1.23;;;23.10;62.20;;;;;;5065217;28;20521;-67
2023/05/17 06:22:03;;;;;;;1.30;1.20;;;23.10;62.20;;;;;;5060256;28;20782;-66
2023/05/17 06:24:31;;;;;;;1.20;1.10;;;23.10;62.60;;;;;;5081228;28;20439;-67
2023/05/17 06:27:01;;;;;;;4.20;1.67;;;23.10;63.00;;;;;;5071064;28;20505;-67
2023/05/17 06:29:30;;;;;;;4.90;2.10;;;23.10;62.90;;;;;;5067797;28;20957;-68
2023/05/17 06:31:58;;;;;;;2.50;1.63;;;23.10;62.90;;;;;;5072554;28;20480;-66
2023/05/17 06:34:27;;;;;;;1.50;1.40;;;23.10;62.60;;;;;;5072272;28;20454;-67
2023/05/17 06:36:55;;;;;;;2.50;1.40;;;23.10;62.50;;;;;;5070736;28;21025;-67
2023/05/17 06:39:23;;;;;;;2.67;1.53;;;23.10;62.20;;;;;;5079332;28;20439;-67
2023/05/17 06:41:51;;;;;;;3.10;1.37;;;23.10;62.00;;;;;;5072029;28;20906;-67
2023/05/17 06:44:21;;;;;;;1.00;0.90;;;23.10;61.90;;;;;;5072318;28;20945;-67
2023/05/17 06:46:49;;;;;;;1.37;0.93;;;23.10;61.80;;;;;;5081360;28;20459;-67
2023/05/17 06:49:17;;;;;;;2.60;1.30;;;23.10;61.50;;;;;;5065373;28;20450;-67
2023/05/17 06:51:47;;;;;;;1.90;1.10;;;23.10;61.80;;;;;;5066704;28;20450;-67
2023/05/17 06:54:15;;;;;;;1.63;1.53;;;23.10;62.10;;;;;;5068779;28;20448;-67
2023/05/17 06:56:43;;;;;;;2.00;1.10;;;23.10;62.30;;;;;;5072223;28;21015;-68
2023/05/17 06:59:12;;;;;;;2.10;1.00;;;23.10;62.50;;;;;;5068899;28;20502;-67
2023/05/17 07:01:41;;;;;;;1.93;1.40;;;23.10;62.70;;;;;;5066614;28;20517;-68
2023/05/17 07:04:10;;;;;;;2.17;1.20;;;23.20;62.90;;;;;;5071262;28;20521;-68
2023/05/17 07:06:38;;;;;;;2.83;1.37;;;23.20;63.10;;;;;;5069005;28;20458;-68
2023/05/17 07:09:06;;;;;;;4.00;1.67;;;23.20;63.20;;;;;;5079953;28;20461;-67
2023/05/17 07:11:35;;;;;;;2.10;1.43;;;23.20;63.30;;;;;;5075233;28;20474;-68
2023/05/17 07:14:03;;;;;;;3.80;1.53;;;23.20;63.50;;;;;;5067475;28;20476;-67
2023/05/17 07:16:32;;;;;;;3.80;1.43;;;23.30;63.60;;;;;;5057141;28;20498;-68
2023/05/17 07:19:01;;;;;;;3.90;1.50;;;23.30;63.70;;;;;;5059254;28;20468;-67
2023/05/17 07:21:30;;;;;;;1.87;1.20;;;23.30;64.10;;;;;;5068419;28;20456;-68
2023/05/17 07:23:59;;;;;;;6.07;1.40;;;23.30;64.40;;;;;;5064818;28;20459;-67
2023/05/17 07:26:27;;;;;;;2.77;1.60;;;23.30;64.80;;;;;;5067218;28;20975;-67
2023/05/17 07:28:55;;;;;;;3.23;1.73;;;23.40;65.00;;;;;;5077135;28;20991;-67
2023/05/17 07:31:23;;;;;;;3.87;1.73;;;23.40;65.20;;;;;;5068681;28;20462;-67
2023/05/17 07:33:51;;;;;;;4.13;1.77;;;23.50;65.30;;;;;;5073506;28;20472;-67
2023/05/17 07:36:21;;;;;;;2.13;1.73;;;23.50;65.40;;;;;;5066661;28;20475;-68
2023/05/17 07:38:49;;;;;;;2.83;1.53;;;23.50;65.50;;;;;;5076324;28;20456;-67
2023/05/17 07:41:21;;;;;;;6.20;1.70;;;23.60;65.60;;;;;;5068106;28;20535;-68
2023/05/17 07:43:50;;;;;;;3.33;1.53;;;23.60;65.70;;;;;;5072365;28;20983;-66
2023/05/17 07:46:18;;;;;;;3.07;1.60;;;23.60;65.70;;;;;;5073798;28;20457;-66
2023/05/17 07:48:46;;;;;;;4.23;2.03;;;23.70;65.70;;;;;;5079605;28;20437;-66
2023/05/17 07:51:15;;;;;;;5.00;2.47;;;23.70;65.70;;;;;;5070313;28;20451;-67
2023/05/17 07:53:45;;;;;;;4.07;1.47;;;23.70;65.70;;;;;;5076653;28;20476;-66
2023/05/17 07:56:13;;;;;;;2.53;1.57;;;23.70;65.80;;;;;;5067756;28;20448;-67
2023/05/17 07:58:42;;;;;;;3.50;1.80;;;23.80;65.70;;;;;;5070880;28;20458;-66
2023/05/17 08:01:10;;;;;;;4.10;2.27;;;23.80;65.70;;;;;;5070893;28;20447;-66
2023/05/17 08:03:38;;;;;;;3.57;1.70;;;23.80;65.70;;;;;;5069851;28;20479;-66
2023/05/17 08:06:07;;;;;;;5.80;2.30;;;23.80;65.70;;;;;;5070361;28;20822;-66
2023/05/17 08:08:35;;;;;;;2.90;1.67;;;23.80;65.50;;;;;;5061858;28;20494;-67
2023/05/17 08:11:05;;;;;;;2.10;1.40;;;23.80;65.70;;;;;;5069891;28;20966;-67
2023/05/17 08:13:33;;;;;;;3.20;1.40;;;23.80;65.70;;;;;;5080989;28;20549;-67
2023/05/17 08:16:02;;;;;;;3.30;1.90;;;23.90;65.40;;;;;;5071498;28;20443;-67
2023/05/17 08:18:41;;;;;;;4.63;1.73;;;23.90;65.50;;;;;;5068986;28;20540;-66
2023/05/17 08:21:11;;;;;;;2.17;1.50;;;23.90;65.40;;;;;;5072234;28;20943;-66
2023/05/17 08:23:41;;;;;;;4.27;1.50;;;23.90;65.50;;;;;;5056016;28;20867;-67
2023/05/17 08:26:11;;;;;;;2.80;1.50;;;23.90;65.50;;;;;;5073733;28;20482;-67
2023/05/17 08:28:41;;;;;;;3.70;1.83;;;23.90;65.50;;;;;;5061556;28;20438;-65
2023/05/17 08:31:10;;;;;;;3.20;1.80;;;23.90;65.40;;;;;;5073685;28;20498;-66
2023/05/17 08:33:38;;;;;;;2.37;1.67;;;23.90;65.40;;;;;;5076717;28;20484;-66
2023/05/17 08:36:07;;;;;;;3.17;1.40;;;23.90;65.40;;;;;;5078252;28;20803;-66
2023/05/17 08:38:36;;;;;;;3.50;1.67;;;23.90;65.40;;;;;;5074799;28;20442;-67
2023/05/17 08:41:04;;;;;;;2.50;1.47;;;24.00;65.40;;;;;;5073406;28;21009;-68
2023/05/17 08:43:34;;;;;;;4.47;1.57;;;24.00;65.40;;;;;;5073043;28;20952;-67
2023/05/17 08:46:03;;;;;;;3.03;1.37;;;24.00;65.40;;;;;;5063646;28;20453;-67
2023/05/17 08:48:31;;;;;;;2.00;1.17;;;24.00;65.40;;;;;;5073005;28;20445;-67
2023/05/17 08:51:00;;;;;;;2.23;1.43;;;24.00;65.40;;;;;;5063709;28;20512;-68
2023/05/17 08:53:28;;;;;;;2.37;1.40;;;24.00;65.40;;;;;;5073379;28;20481;-67
2023/05/17 08:56:00;;;;;;;3.07;1.40;;;24.00;65.20;;;;;;5073242;28;20860;-67
2023/05/17 08:58:31;;;;;;;3.17;1.47;;;24.00;65.20;;;;;;5071981;28;20438;-67
2023/05/17 09:01:21;;;;;;;1.73;1.40;;;24.00;65.20;;;;;;5072728;28;20496;-67
2023/05/17 09:03:52;;;;;;;2.60;1.33;;;24.00;65.10;;;;;;5069935;28;20465;-67
2023/05/17 09:06:23;;;;;;;2.30;1.10;;;24.00;65.20;;;;;;5055108;28;20487;-66
2023/05/17 09:08:51;;;;;;;2.70;1.67;;;24.10;65.00;;;;;;5083283;28;20440;-67
2023/05/17 09:11:27;;;;;;;2.10;1.37;;;24.10;64.90;;;;;;5073336;28;20455;-66
2023/05/17 09:13:59;;;;;;;2.33;1.30;;;24.10;64.90;;;;;;5070108;28;20520;-67
2023/05/17 09:16:30;;;;;;;3.47;1.77;;;24.10;64.80;;;;;;5071286;28;20964;-65
2023/05/17 09:18:59;;;;;;;3.03;1.47;;;24.10;64.70;;;;;;5072970;28;20487;-66
2023/05/17 09:21:30;;;;;;;1.93;1.23;;;24.20;64.70;;;;;;5076330;28;20449;-66
2023/05/17 09:24:00;;;;;;;2.87;1.93;;;24.20;64.60;;;;;;5065272;28;20461;-66
2023/05/17 09:26:39;;;;;;;4.30;1.63;;;24.20;64.60;;;;;;5069413;28;20570;-68
2023/05/17 09:29:10;;;;;;;1.50;1.30;;;24.20;64.50;;;;;;5075860;28;20490;-66
2023/05/17 09:31:40;;;;;;;4.20;1.37;;;24.20;64.50;;;;;;5071835;28;20454;-67
2023/05/17 09:34:09;;;;;;;1.93;1.33;;;24.20;64.50;;;;;;5054543;28;20544;-67
2023/05/17 09:36:38;;;;;;;1.37;1.03;;;24.20;64.50;;;;;;5076262;28;20441;-67
2023/05/17 09:39:10;;;;;;;2.03;1.73;;;24.20;64.50;;;;;;5076853;28;20464;-66
2023/05/17 09:41:44;;;;;;;2.70;1.67;;;24.20;64.40;;;;;;5073701;28;20818;-66
2023/05/17 09:44:14;;;;;;;1.93;1.20;;;24.30;64.40;;;;;;5064327;28;20450;-66
2023/05/17 09:46:46;;;;;;;2.90;2.10;;;24.20;64.40;;;;;;5071886;28;20531;-66
2023/05/17 09:49:15;;;;;;;2.03;1.60;;;24.30;64.40;;;;;;5061450;28;20446;-66
2023/05/17 09:51:45;;;;;;;2.10;1.43;;;24.30;64.40;;;;;;5054363;28;20451;-66
2023/05/17 09:54:13;;;;;;;1.40;1.20;;;24.30;64.40;;;;;;5071820;28;20470;-66
2023/05/17 09:56:41;;;;;;;1.67;1.27;;;24.20;64.40;;;;;;5072248;28;20462;-67
2023/05/17 09:59:15;;;;;;;1.47;1.37;;;24.20;64.40;;;;;;5071414;28;20450;-67
2023/05/17 10:01:45;;;;;;;1.70;1.60;;;24.30;64.40;;;;;;5053560;28;20454;-66
2023/05/17 10:04:19;;;;;;;2.60;1.60;;;24.30;64.40;;;;;;5071700;28;20444;-66
2023/05/17 10:06:49;;;;;;;1.43;1.17;;;24.30;64.30;;;;;;5073953;28;20439;-67
2023/05/17 10:09:22;;;;;;;2.47;1.47;;;24.30;64.30;;;;;;5076227;28;20443;-66
2023/05/17 10:11:55;;;;;;;1.80;1.27;;;24.30;64.20;;;;;;5072361;28;20972;-67
2023/05/17 10:14:27;;;;;;;1.47;1.37;;;24.30;64.20;;;;;;5072466;28;20470;-67
2023/05/17 10:16:57;;;;;;;3.30;1.20;;;24.30;64.20;;;;;;5068407;28;20466;-68
2023/05/17 10:19:26;;;;;;;2.60;1.33;;;24.30;64.20;;;;;;5070395;28;20451;-68
2023/05/17 10:21:57;;;;;;;3.53;1.57;;;24.30;64.10;;;;;;5071004;28;20516;-68
2023/05/17 10:24:46;;;;;;;2.10;1.90;;;24.30;64.00;;;;;;5067281;28;20558;-69
2023/05/17 10:27:15;;;;;;;2.80;1.53;;;24.40;63.80;;;;;;5071898;28;20527;-67
2023/05/17 10:29:45;;;;;;;1.53;0.90;;;24.40;63.70;;;;;;5071026;28;20474;-68
2023/05/17 10:32:21;;;;;;;1.87;1.23;;;24.40;63.70;;;;;;5068185;28;20451;-68
2023/05/17 10:34:51;;;;;;;1.87;1.50;;;24.40;63.70;;;;;;5071784;28;20483;-68
2023/05/17 10:37:37;;;;;;;3.67;1.43;;;24.40;63.60;;;;;;5062593;28;20448;-68
2023/05/17 10:40:11;;;;;;;1.30;1.20;;;24.40;63.60;;;;;;5058954;28;20467;-68
2023/05/17 10:42:43;;;;;;;1.33;1.23;;;24.40;63.50;;;;;;5068535;28;20495;-68
2023/05/17 10:45:12;;;;;;;3.40;1.57;;;24.40;63.50;;;;;;5064489;28;21255;-68
2023/05/17 10:47:44;;;;;;;2.40;2.20;;;24.40;63.50;;;;;;5047249;28;20684;-68
2023/05/17 10:50:13;;;;;;;1.30;1.20;;;24.40;63.50;;;;;;5052040;28;20429;-68
2023/05/17 10:52:47;;;;;;;1.63;1.50;;;24.40;63.50;;;;;;5062606;28;20456;-68
2023/05/17 10:55:19;;;;;;;3.73;1.37;;;24.40;63.50;;;;;;5069082;28;20470;-68
2023/05/17 10:58:13;;;;;;;1.50;1.20;;;24.40;63.40;;;;;;5074655;28;20452;-68
2023/05/17 11:00:42;;;;;;;2.17;1.17;;;24.40;63.40;;;;;;5071955;28;20461;-68
2023/05/17 11:03:18;;;;;;;1.50;1.10;;;24.40;63.50;;;;;;5077099;28;20457;-68
2023/05/17 11:06:14;;;;;;;1.93;1.20;;;24.40;63.40;;;;;;5078706;28;20482;-68
2023/05/17 11:09:13;;;;;;;1.33;1.23;;;24.30;63.60;;;;;;5072537;28;20454;-68
2023/05/17 11:12:04;;;;;;;2.27;1.53;;;24.30;63.80;;;;;;5071792;28;20451;-68
2023/05/17 11:14:46;;;;;;;2.27;1.30;;;24.30;63.70;;;;;;5062814;28;20472;-68
2023/05/17 11:17:16;;;;;;;1.97;1.60;;;24.30;63.70;;;;;;5066278;28;20505;-70
2023/05/17 11:20:09;;;;;;;2.20;1.60;;;24.30;63.60;;;;;;5071850;28;20458;-65
2023/05/17 11:22:41;;;;;;;1.73;1.30;;;24.40;63.60;;;;;;5068276;28;20500;-65
2023/05/17 11:25:11;;;;;;;9.23;1.90;;;24.40;63.80;;;;;;5080519;28;20533;-67
2023/05/17 11:27:45;;;;;;;2.67;1.40;;;24.40;63.80;;;;;;5070582;28;20526;-67
2023/05/17 11:30:20;;;;;;;5.10;2.20;;;24.40;63.80;;;;;;5063189;28;20461;-65
2023/05/17 11:32:51;;;;;;;2.50;1.77;;;24.50;63.60;;;;;;5075359;28;20456;-65
2023/05/17 11:35:25;;;;;;;3.07;1.70;;;24.50;63.60;;;;;;5076218;28;20469;-68
2023/05/17 11:38:11;;;;;;;2.70;1.50;;;24.60;63.50;;;;;;5070706;28;20463;-66
2023/05/17 11:40:40;;;;;;;1.80;1.63;;;24.60;63.40;;;;;;5065755;28;20458;-66
2023/05/17 11:43:17;;;;;;;1.57;1.20;;;24.60;63.40;;;;;;5058650;28;20484;-67
2023/05/17 11:45:49;;;;;;;4.20;1.50;;;24.60;63.40;;;;;;5065685;28;20575;-67
2023/05/17 11:48:21;;;;;;;3.50;1.97;;;24.60;63.40;;;;;;5061734;28;20531;-66
2023/05/17 11:50:53;;;;;;;3.30;1.27;;;24.60;63.40;;;;;;5057314;28;20458;-67
2023/05/17 11:53:21;;;;;;;4.33;1.80;;;24.70;63.20;;;;;;5078794;28;20486;-66
2023/05/17 11:55:51;;;;;;;2.70;2.07;;;24.80;62.90;;;;;;5075211;28;20511;-66
2023/05/17 11:58:23;;;;;;;2.73;1.80;;;25.00;62.70;;;;;;5069504;28;20453;-66
2023/05/17 12:00:54;;;;;;;3.93;1.70;;;25.10;62.40;;;;;;5070967;28;20443;-66
2023/05/17 12:03:25;;;;;;;2.10;1.30;;;25.10;62.40;;;;;;5063556;28;20917;-67
2023/05/17 12:06:05;;;;;;;4.20;1.80;;;25.10;62.20;;;;;;5079847;28;20919;-66
2023/05/17 12:08:34;;;;;;;3.23;2.00;;;25.10;62.30;;;;;;5073340;28;20936;-66
2023/05/17 12:11:03;;;;;;;1.30;1.20;;;25.10;62.40;;;;;;5074000;28;20498;-66
2023/05/17 12:13:34;;;;;;;2.13;1.80;;;25.00;62.40;;;;;;5071672;28;20940;-66
2023/05/17 12:16:04;;;;;;;3.87;1.87;;;25.00;62.60;;;;;;5073612;28;20968;-65
2023/05/17 12:18:37;;;;;;;2.37;1.93;;;25.00;62.50;;;;;;5079326;28;21031;-66
2023/05/17 12:21:08;;;;;;;2.50;2.00;;;25.10;62.50;;;;;;5080572;28;20448;-65
2023/05/17 12:23:38;;;;;;;3.23;1.97;;;25.10;62.30;;;;;;5073562;28;20449;-66
2023/05/17 12:26:08;;;;;;;3.13;1.60;;;25.10;62.20;;;;;;5063650;28;20568;-66
2023/05/17 12:28:38;;;;;;;7.10;2.90;;;25.20;62.20;;;;;;5048177;28;20462;-66
2023/05/17 12:31:08;;;;;;;2.83;1.70;;;25.20;62.20;;;;;;5042404;28;20539;-66
2023/05/17 12:33:39;;;;;;;2.53;1.80;;;25.20;62.20;;;;;;5049980;28;20921;-66
2023/05/17 12:36:11;;;;;;;2.77;1.70;;;25.10;62.30;;;;;;5052285;28;20476;-66
2023/05/17 12:38:40;;;;;;;3.50;1.90;;;25.10;62.30;;;;;;5050623;28;20450;-67
2023/05/17 12:41:11;;;;;;;2.83;1.50;;;25.00;62.40;;;;;;5027137;28;20587;-66
2023/05/17 12:43:40;;;;;;;2.60;1.63;;;25.00;62.60;;;;;;5044452;28;20458;-66
2023/05/17 12:46:10;;;;;;;4.23;1.80;;;25.00;62.70;;;;;;5053702;28;20535;-66
2023/05/17 12:48:40;;;;;;;3.60;1.70;;;25.10;62.60;;;;;;5047719;28;20438;-65
2023/05/17 12:51:12;;;;;;;3.27;1.57;;;25.20;62.30;;;;;;5048979;28;20957;-66
2023/05/17 12:53:43;;;;;;;2.30;1.70;;;25.40;62.00;;;;;;5051305;28;20485;-66
2023/05/17 12:56:17;;;;;;;2.37;2.03;;;25.40;61.70;;;;;;5022156;28;20535;-66
2023/05/17 12:59:05;;;;;;;2.20;1.70;;;25.40;61.70;;;;;;5052498;28;21010;-64
2023/05/17 13:01:35;;;;;;;2.10;1.97;;;25.40;61.70;;;;;;5056016;28;20457;-64
2023/05/17 13:04:05;;;;;;;2.33;1.90;;;25.40;61.80;;;;;;5053638;28;20947;-64
2023/05/17 13:06:49;;;;;;;1.60;1.50;;;25.40;62.00;;;;;;5049452;28;20578;-64